createdAt,value
2023-05-17T13:05:47.075Z,17.70
2023-05-17T13:08:35.675Z,17.80
2023-05-17T13:11:27.076Z,17.70
2023-05-17T13:14:15.494Z,17.70
2023-05-17T13:17:04.634Z,17.80
2023-05-17T13:19:53.238Z,17.80
2023-05-17T13:22:47.119Z,17.70
2023-05-17T13:25:36.715Z,17.70
2023-05-17T13:28:26.401Z,17.80
2023-05-17T13:31:14.951Z,17.80
2023-05-17T13:34:03.466Z,17.80
2023-05-17T13:36:52.071Z,17.70
2023-05-17T13:39:42.430Z,17.70
2023-05-17T13:42:31.971Z,17.80
2023-05-17T13:45:20.444Z,17.80
2023-05-17T13:48:09.131Z,17.70
2023-05-17T13:50:58.451Z,17.60
2023-05-17T13:53:46.972Z,17.60
2023-05-17T13:56:36.794Z,17.60
2023-05-17T13:59:25.209Z,17.60
2023-05-17T14:02:13.757Z,17.60
2023-05-17T14:05:02.257Z,17.50
2023-05-17T14:07:51.514Z,17.50
2023-05-17T14:10:39.972Z,17.50
2023-05-17T14:13:30.075Z,17.30
2023-05-17T14:16:18.539Z,17.20
2023-05-17T14:19:07.065Z,17.20
2023-05-17T14:21:55.574Z,17.20
2023-05-17T14:24:44.246Z,17.20
2023-05-17T14:27:32.821Z,17.30
2023-05-17T14:30:22.804Z,17.40
2023-05-17T14:33:11.568Z,17.40
2023-05-17T14:36:00.129Z,17.40
2023-05-17T14:38:48.694Z,17.30
2023-05-17T14:41:39.190Z,17.20
2023-05-17T14:44:28.122Z,17.20
2023-05-17T14:47:18.000Z,17.20
2023-05-17T14:50:07.483Z,17.30
2023-05-17T14:52:56.424Z,17.40
2023-05-17T14:55:45.011Z,17.50
2023-05-17T14:58:33.526Z,17.50
2023-05-17T15:01:22.053Z,17.50
2023-05-17T15:04:12.037Z,17.50
2023-05-17T15:07:00.664Z,17.40
2023-05-17T15:09:49.357Z,17.40
2023-05-17T15:12:37.801Z,17.40
2023-05-17T15:15:26.321Z,17.50
2023-05-17T15:18:14.845Z,17.50
2023-05-17T15:21:04.976Z,17.40
2023-05-17T15:23:53.481Z,17.50
2023-05-17T15:26:42.028Z,17.40
2023-05-17T15:29:31.261Z,17.60
2023-05-17T15:32:20.313Z,17.60
2023-05-17T15:35:09.574Z,17.50
2023-05-17T15:38:00.387Z,17.60
2023-05-17T15:40:49.076Z,18.00
2023-05-17T15:43:37.595Z,17.60
2023-05-17T15:46:26.105Z,17.60
2023-05-17T15:49:14.587Z,17.60
2023-05-17T15:52:03.129Z,17.60
2023-05-17T15:54:54.105Z,17.60
2023-05-17T15:57:42.807Z,17.80
2023-05-17T16:00:31.693Z,17.50
2023-05-17T16:03:20.201Z,17.50
2023-05-17T16:06:08.911Z,17.30
2023-05-17T16:08:57.415Z,17.20
2023-05-17T16:11:47.320Z,17.20
2023-05-17T16:14:35.921Z,17.20
2023-05-17T16:17:24.536Z,17.20
2023-05-17T16:20:14.038Z,17.30
2023-05-17T16:23:02.789Z,17.30
2023-05-17T16:25:51.496Z,17.20
2023-05-17T16:28:41.579Z,17.30
2023-05-17T16:31:30.077Z,16.40
2023-05-17T16:34:18.827Z,17.20
2023-05-17T16:37:07.530Z,17.20
2023-05-17T16:39:56.071Z,17.10
2023-05-17T16:42:44.652Z,17.10
2023-05-17T16:45:34.596Z,17.10
2023-05-17T16:48:23.187Z,17.10
2023-05-17T16:51:11.726Z,17.10
2023-05-17T16:54:00.241Z,17.20
2023-05-17T16:56:49.040Z,16.50
2023-05-17T17:02:27.887Z,17.20
2023-05-17T17:05:16.445Z,17.30
2023-05-17T17:08:05.085Z,17.10
2023-05-17T17:10:53.656Z,17.10
2023-05-17T17:13:42.193Z,17.10
2023-05-17T17:16:31.261Z,17.20
2023-05-17T17:19:21.821Z,17.20
2023-05-17T17:22:11.875Z,17.20
2023-05-17T17:27:49.805Z,17.20
2023-05-17T17:30:39.595Z,17.20
2023-05-17T17:33:28.207Z,17.20
2023-05-17T17:36:18.194Z,17.10
2023-05-17T17:39:06.762Z,17.00
2023-05-17T17:41:55.347Z,17.00
2023-05-17T17:44:43.935Z,17.20
2023-05-17T17:47:32.517Z,17.00
2023-05-17T17:50:20.972Z,17.00
2023-05-17T17:53:10.850Z,17.00
2023-05-17T17:55:59.307Z,17.10
2023-05-17T17:58:47.880Z,17.10
2023-05-17T18:04:26.434Z,17.10
2023-05-17T18:07:16.922Z,17.00
2023-05-17T18:10:07.930Z,16.90
2023-05-17T18:12:56.404Z,16.90
2023-05-17T18:24:12.473Z,16.60
2023-05-17T18:27:02.879Z,16.70
2023-05-17T18:29:51.503Z,16.80
2023-05-17T18:32:40.191Z,16.80
2023-05-17T18:35:28.839Z,16.80
2023-05-17T18:38:17.270Z,16.90
2023-05-17T18:41:05.836Z,17.00
2023-05-17T18:43:56.933Z,16.90
2023-05-17T18:46:45.604Z,16.90
2023-05-17T18:49:34.152Z,16.80
2023-05-17T18:52:22.914Z,16.80
2023-05-17T18:55:12.201Z,16.80
2023-05-17T19:00:51.068Z,16.60
2023-05-17T19:03:39.649Z,16.60
2023-05-17T19:06:28.566Z,16.60
2023-05-17T19:09:17.206Z,16.70
2023-05-17T19:12:06.616Z,16.70
2023-05-17T19:14:55.042Z,16.60
2023-05-17T19:17:45.236Z,16.60
2023-05-17T19:20:34.816Z,16.60
2023-05-17T19:23:23.410Z,16.60
2023-05-17T19:26:11.892Z,16.70
2023-05-17T19:29:00.432Z,16.70
2023-05-17T19:31:49.047Z,16.70
2023-05-17T19:34:39.346Z,16.80
2023-05-17T19:37:28.298Z,16.80
2023-05-17T19:40:18.813Z,16.80
2023-05-17T19:43:07.897Z,16.80
2023-05-17T19:45:59.014Z,16.80
2023-05-17T19:48:48.506Z,16.80
2023-05-17T19:51:39.198Z,16.50
2023-05-17T19:54:29.521Z,16.80
2023-05-17T19:57:18.720Z,16.70
2023-05-17T20:00:08.559Z,16.70
2023-05-17T20:02:57.732Z,16.70
2023-05-17T20:05:47.467Z,16.60
2023-05-17T20:08:39.173Z,16.60
2023-05-17T20:11:29.483Z,16.60
2023-05-17T20:14:19.346Z,16.60
2023-05-17T20:17:08.313Z,16.60
2023-05-17T20:19:57.840Z,16.60
2023-05-17T20:22:48.045Z,16.60
